Time;durP1;ratioP1;P1;durP2;ratioP2;P2;SDS_P1;SDS_P2;PMS_P1;PMS_P2;Temp;Humidity;BMP_temperature;BMP_pressure;BME280_temperature;BME280_humidity;BME280_pressure;Samples;Min_cycle;Max_cycle;Signal;HPM_P1;HPM_P2
2023/07/06 00:01:03;;;;;;;2.77;2.57;;;14.90;99.90;;;;;;5093488;28;20595;-72
2023/07/06 00:03:31;;;;;;;6.17;3.23;;;14.90;99.90;;;;;;5112899;28;20509;-73
2023/07/06 00:05:57;;;;;;;2.67;2.40;;;14.90;99.90;;;;;;5116562;28;20896;-72
2023/07/06 00:08:22;;;;;;;5.10;2.57;;;14.90;99.90;;;;;;5115552;28;20512;-72
2023/07/06 00:10:51;;;;;;;2.57;2.20;;;14.90;99.90;;;;;;5113709;28;20213;-72
2023/07/06 00:13:20;;;;;;;2.80;2.10;;;14.90;99.90;;;;;;5115920;28;20180;-72
2023/07/06 00:15:48;;;;;;;2.63;2.07;;;14.90;99.90;;;;;;5096007;28;20422;-71
2023/07/06 00:18:15;;;;;;;4.20;2.53;;;14.80;99.90;;;;;;5097787;28;20422;-73
2023/07/06 00:20:41;;;;;;;2.10;1.90;;;14.80;99.90;;;;;;5115458;28;20469;-73
2023/07/06 00:23:10;;;;;;;2.87;2.27;;;14.70;99.90;;;;;;5115508;28;20458;-73
2023/07/06 00:25:37;;;;;;;2.90;2.00;;;14.70;99.90;;;;;;5105031;28;20875;-72
2023/07/06 00:28:03;;;;;;;3.30;2.40;;;14.60;99.90;;;;;;5105506;28;20440;-72
2023/07/06 00:33:12;;;;;;;2.03;1.77;;;14.50;99.90;;;;;;5075722;28;20415;-72
2023/07/06 00:35:40;;;;;;;7.47;2.63;;;14.40;99.90;;;;;;5091829;28;20882;-73
2023/07/06 00:38:12;;;;;;;4.50;2.43;;;14.40;99.90;;;;;;5115698;28;20406;-72
2023/07/06 00:40:42;;;;;;;2.97;2.13;;;14.30;99.90;;;;;;5112238;28;20750;-72
2023/07/06 00:43:15;;;;;;;2.77;1.90;;;14.30;99.90;;;;;;5115321;28;20468;-72
2023/07/06 00:45:42;;;;;;;2.30;1.93;;;14.30;99.90;;;;;;5095725;28;20514;-72
2023/07/06 00:48:44;;;;;;;3.30;2.10;;;14.20;99.90;;;;;;5112921;28;20413;-72
2023/07/06 00:51:20;;;;;;;2.60;2.00;;;14.20;99.90;;;;;;5061514;28;20456;-73
2023/07/06 00:53:51;;;;;;;3.87;1.97;;;14.20;99.90;;;;;;5112076;28;20441;-71
2023/07/06 00:56:23;;;;;;;3.20;2.43;;;14.10;99.90;;;;;;5098328;28;20444;-72
2023/07/06 00:58:52;;;;;;;2.30;2.10;;;14.10;99.90;;;;;;5108471;28;20736;-73
2023/07/06 01:01:21;;;;;;;2.67;1.80;;;14.00;99.90;;;;;;5082727;28;20498;-72
2023/07/06 01:03:52;;;;;;;5.60;2.23;;;14.00;99.90;;;;;;5111505;28;20480;-72
2023/07/06 01:06:29;;;;;;;3.70;2.30;;;13.90;99.90;;;;;;5100539;28;20843;-73
2023/07/06 01:08:55;;;;;;;4.67;2.00;;;13.90;99.90;;;;;;5118593;28;20459;-72
2023/07/06 01:11:21;;;;;;;2.93;2.67;;;13.90;99.90;;;;;;5087494;28;20422;-72
2023/07/06 01:13:52;;;;;;;3.20;1.87;;;13.90;99.90;;;;;;5083098;28;20425;-71
2023/07/06 01:16:39;;;;;;;2.70;2.17;;;13.80;99.90;;;;;;5097963;28;20344;-71
2023/07/06 01:19:36;;;;;;;3.10;1.80;;;13.80;99.90;;;;;;5099098;28;20524;-71
2023/07/06 01:22:17;;;;;;;2.90;2.17;;;13.80;99.90;;;;;;5118704;28;20493;-71
2023/07/06 01:25:02;;;;;;;3.63;2.47;;;13.70;99.90;;;;;;5081835;28;20505;-74
2023/07/06 01:27:57;;;;;;;3.10;2.33;;;13.70;99.90;;;;;;5099376;28;20440;-72
2023/07/06 01:30:53;;;;;;;2.30;2.10;;;13.70;99.90;;;;;;5088600;28;20943;-72
2023/07/06 01:33:32;;;;;;;2.90;2.60;;;13.70;99.90;;;;;;5098027;28;20860;-72
2023/07/06 01:36:08;;;;;;;3.20;2.30;;;13.60;99.90;;;;;;5098212;28;20423;-71
2023/07/06 01:38:34;;;;;;;3.53;2.40;;;13.60;99.90;;;;;;5104706;28;20409;-72
2023/07/06 01:40:59;;;;;;;2.80;2.43;;;13.50;99.90;;;;;;5117863;28;20425;-71
2023/07/06 01:43:26;;;;;;;4.00;2.63;;;13.50;99.90;;;;;;5111826;28;20410;-72
2023/07/06 01:45:53;;;;;;;2.90;2.23;;;13.40;99.90;;;;;;5092502;28;20522;-72
2023/07/06 01:48:20;;;;;;;3.00;2.33;;;13.40;99.90;;;;;;5079902;28;20412;-71
2023/07/06 01:50:56;;;;;;;3.10;2.17;;;13.30;99.90;;;;;;5117695;28;20579;-73
2023/07/06 01:53:58;;;;;;;3.57;2.20;;;13.30;99.90;;;;;;5096818;28;20738;-73
2023/07/06 01:56:39;;;;;;;2.97;1.73;;;13.30;99.90;;;;;;5097829;28;20795;-72
2023/07/06 01:59:13;;;;;;;2.90;2.30;;;13.20;99.90;;;;;;5098527;28;20411;-72
2023/07/06 02:01:48;;;;;;;4.23;2.10;;;13.20;99.90;;;;;;5083040;28;20450;-71
2023/07/06 02:04:15;;;;;;;2.33;1.83;;;13.20;99.90;;;;;;5108686;28;20445;-71
2023/07/06 02:06:41;;;;;;;2.60;1.93;;;13.10;99.90;;;;;;5097784;28;20417;-74
2023/07/06 02:09:13;;;;;;;2.90;2.03;;;13.10;99.90;;;;;;5098611;28;20439;-71
2023/07/06 02:11:39;;;;;;;6.50;2.93;;;13.00;99.90;;;;;;5109307;28;20429;-71
2023/07/06 02:14:04;;;;;;;3.60;2.10;;;13.00;99.90;;;;;;5098507;28;20417;-73
2023/07/06 02:16:30;;;;;;;2.97;1.97;;;12.90;99.90;;;;;;5080274;28;20184;-72
2023/07/06 02:18:58;;;;;;;4.40;2.30;;;12.90;99.90;;;;;;5078612;28;20193;-72
2023/07/06 02:21:25;;;;;;;2.50;2.10;;;12.90;99.90;;;;;;5088943;28;20227;-71
2023/07/06 02:23:51;;;;;;;4.70;1.97;;;12.90;99.90;;;;;;5099299;28;20406;-71
2023/07/06 02:26:16;;;;;;;2.40;1.83;;;12.80;99.90;;;;;;5087580;28;20422;-72
2023/07/06 02:28:42;;;;;;;2.50;1.73;;;12.80;99.90;;;;;;5097371;28;20172;-75
2023/07/06 02:31:09;;;;;;;4.30;2.63;;;12.70;99.90;;;;;;5098596;28;20272;-73
2023/07/06 02:33:34;;;;;;;3.50;2.20;;;12.70;99.90;;;;;;5098546;28;20410;-73
2023/07/06 02:36:00;;;;;;;3.13;2.00;;;12.70;99.90;;;;;;5097016;28;20872;-72
2023/07/06 02:38:29;;;;;;;2.53;2.17;;;12.70;99.90;;;;;;5096840;28;20193;-73
2023/07/06 02:40:55;;;;;;;3.23;2.17;;;12.70;99.90;;;;;;5097740;28;20200;-72
2023/07/06 02:43:21;;;;;;;5.63;2.43;;;12.60;99.90;;;;;;5097647;28;20741;-72
2023/07/06 02:45:48;;;;;;;5.73;3.00;;;12.60;99.90;;;;;;5084947;28;20448;-71
2023/07/06 02:48:14;;;;;;;2.87;2.23;;;12.60;99.90;;;;;;5102429;28;20441;-72
2023/07/06 02:50:39;;;;;;;2.17;1.97;;;12.60;99.90;;;;;;5116796;28;20456;-72
2023/07/06 02:53:05;;;;;;;2.30;1.70;;;12.50;99.90;;;;;;5106035;28;20422;-72
2023/07/06 02:55:32;;;;;;;2.70;1.77;;;12.50;99.90;;;;;;5086821;28;20184;-73
2023/07/06 02:57:58;;;;;;;4.70;2.13;;;12.50;99.90;;;;;;5099615;28;20204;-72
2023/07/06 03:00:24;;;;;;;2.43;1.87;;;12.40;99.90;;;;;;5070994;28;20553;-71
2023/07/06 03:02:50;;;;;;;2.43;2.20;;;12.40;99.90;;;;;;5079321;28;20529;-72
2023/07/06 03:05:22;;;;;;;4.17;2.30;;;12.40;99.90;;;;;;5116423;28;20264;-71
2023/07/06 03:07:51;;;;;;;2.43;2.20;;;12.40;99.90;;;;;;5101914;28;20853;-72
2023/07/06 03:10:19;;;;;;;3.87;2.57;;;12.30;99.90;;;;;;5112458;28;20463;-71
2023/07/06 03:12:45;;;;;;;3.03;1.80;;;12.30;99.90;;;;;;5096012;28;20415;-72
2023/07/06 03:15:14;;;;;;;2.97;2.00;;;12.30;99.90;;;;;;5088863;28;20446;-71
2023/07/06 03:17:41;;;;;;;3.70;1.80;;;12.30;99.90;;;;;;5088331;28;20409;-73
2023/07/06 03:20:14;;;;;;;3.50;2.20;;;12.30;99.90;;;;;;5091244;28;20548;-72
2023/07/06 03:22:45;;;;;;;3.50;2.90;;;12.30;99.90;;;;;;5099519;28;20458;-72
2023/07/06 03:25:15;;;;;;;6.07;2.47;;;12.30;99.90;;;;;;5117182;28;20406;-73
2023/07/06 03:27:42;;;;;;;3.37;2.33;;;12.30;99.90;;;;;;5085658;28;20890;-71
2023/07/06 03:30:10;;;;;;;4.40;3.03;;;12.30;99.90;;;;;;5079293;28;20447;-72
2023/07/06 03:32:37;;;;;;;3.17;2.37;;;12.40;99.90;;;;;;5074928;28;20419;-72
2023/07/06 03:35:12;;;;;;;2.13;1.63;;;12.40;99.90;;;;;;5099273;28;20414;-72
2023/07/06 03:37:38;;;;;;;2.87;1.93;;;12.40;99.90;;;;;;5098736;28;20405;-72
2023/07/06 03:40:11;;;;;;;3.57;2.20;;;12.50;99.90;;;;;;5110214;28;20438;-70
2023/07/06 03:42:39;;;;;;;4.53;2.40;;;12.50;99.90;;;;;;5107472;28;20793;-71
2023/07/06 03:45:05;;;;;;;3.70;2.03;;;12.50;99.90;;;;;;5106893;28;20423;-71
2023/07/06 03:47:33;;;;;;;4.07;1.80;;;12.50;99.90;;;;;;5081144;28;20464;-72
2023/07/06 03:49:59;;;;;;;4.43;2.60;;;12.60;99.90;;;;;;5100318;28;20450;-73
2023/07/06 03:52:27;;;;;;;6.93;2.20;;;12.60;99.90;;;;;;5100822;28;20457;-71
2023/07/06 03:54:53;;;;;;;4.40;2.40;;;12.60;99.90;;;;;;5097932;28;20437;-72
2023/07/06 03:57:19;;;;;;;3.10;2.43;;;12.60;99.90;;;;;;5098531;28;20395;-71
2023/07/06 03:59:45;;;;;;;2.80;1.77;;;12.70;99.90;;;;;;5098508;28;20714;-72
2023/07/06 04:02:12;;;;;;;4.40;2.43;;;12.70;99.90;;;;;;5098598;28;20583;-72
2023/07/06 04:04:38;;;;;;;2.60;1.83;;;12.70;99.90;;;;;;5116126;28;20446;-74
2023/07/06 04:07:04;;;;;;;4.87;2.17;;;12.70;99.90;;;;;;5105291;28;20411;-72
2023/07/06 04:09:29;;;;;;;3.10;2.63;;;12.70;99.90;;;;;;5113866;28;20445;-71
2023/07/06 04:11:55;;;;;;;4.93;2.20;;;12.80;99.90;;;;;;5091463;28;20668;-73
2023/07/06 04:14:27;;;;;;;3.30;2.17;;;12.80;99.90;;;;;;5115443;28;20333;-73
2023/07/06 04:16:56;;;;;;;2.90;2.10;;;12.80;99.90;;;;;;5100281;28;20438;-76
2023/07/06 04:19:24;;;;;;;5.30;1.97;;;12.90;99.90;;;;;;5099768;28;20908;-72
2023/07/06 04:21:51;;;;;;;6.13;2.53;;;12.90;99.90;;;;;;5096245;28;20779;-72
2023/07/06 04:24:17;;;;;;;2.37;2.17;;;13.00;99.90;;;;;;5115638;28;20868;-74
2023/07/06 04:26:46;;;;;;;4.60;2.40;;;13.10;99.90;;;;;;5100256;28;20422;-73
2023/07/06 04:29:12;;;;;;;5.00;2.50;;;13.20;99.90;;;;;;5109465;28;20216;-76
2023/07/06 04:31:38;;;;;;;4.40;1.97;;;13.30;99.90;;;;;;5082028;28;20701;-75
2023/07/06 04:34:04;;;;;;;5.23;2.70;;;13.30;99.90;;;;;;5089199;28;20254;-73
2023/07/06 04:36:31;;;;;;;7.80;3.00;;;13.40;99.90;;;;;;5104823;28;20414;-74
2023/07/06 04:38:59;;;;;;;4.50;2.70;;;13.40;99.90;;;;;;5107722;28;20257;-76
2023/07/06 04:41:25;;;;;;;7.63;3.40;;;13.50;99.90;;;;;;5107381;28;20463;-71
2023/07/06 04:43:52;;;;;;;4.07;3.10;;;13.60;99.90;;;;;;5101596;28;20449;-73
2023/07/06 04:46:21;;;;;;;3.00;2.47;;;13.60;99.90;;;;;;5100976;28;20418;-71
2023/07/06 04:48:48;;;;;;;2.67;2.30;;;13.60;99.90;;;;;;5098508;28;20502;-72
2023/07/06 04:51:13;;;;;;;5.73;2.80;;;13.80;99.90;;;;;;5098470;28;20494;-72
2023/07/06 04:53:40;;;;;;;4.17;2.50;;;14.20;99.90;;;;;;5108744;28;20530;-73
2023/07/06 04:56:07;;;;;;;3.33;1.83;;;14.80;99.90;;;;;;5103027;28;20461;-72
2023/07/06 04:58:32;;;;;;;4.20;2.00;;;15.60;99.90;;;;;;5098298;28;20494;-72
2023/07/06 05:01:04;;;;;;;6.10;2.50;;;16.30;99.90;;;;;;5104171;28;20437;-73
2023/07/06 05:03:30;;;;;;;4.00;2.87;;;17.00;99.90;;;;;;5118472;28;20670;-72
2023/07/06 05:06:01;;;;;;;3.30;2.10;;;17.40;95.70;;;;;;5090713;28;20513;-72
2023/07/06 05:08:27;;;;;;;2.50;1.67;;;17.80;92.00;;;;;;5105996;28;20230;-73
2023/07/06 05:10:53;;;;;;;3.23;2.13;;;18.20;88.20;;;;;;5110203;28;20466;-72
2023/07/06 05:13:20;;;;;;;3.20;1.80;;;18.50;82.70;;;;;;5115923;28;20487;-74
2023/07/06 05:15:48;;;;;;;3.73;2.47;;;18.80;78.90;;;;;;5093657;28;20513;-72
2023/07/06 05:18:14;;;;;;;3.47;2.13;;;19.10;74.20;;;;;;5092323;28;20846;-70
2023/07/06 05:20:40;;;;;;;4.40;2.23;;;19.40;71.20;;;;;;5107107;28;20455;-73
2023/07/06 05:23:08;;;;;;;3.73;2.10;;;19.60;68.80;;;;;;5102931;28;20352;-71
2023/07/06 05:25:36;;;;;;;3.70;2.10;;;19.90;66.20;;;;;;5116077;28;20419;-72
2023/07/06 05:28:02;;;;;;;2.60;1.60;;;20.20;64.00;;;;;;5118332;28;20416;-72
2023/07/06 05:30:28;;;;;;;3.67;1.87;;;20.40;62.10;;;;;;5104451;28;20450;-74
2023/07/06 05:32:54;;;;;;;4.50;2.00;;;20.50;60.60;;;;;;5086379;28;20448;-73
2023/07/06 05:35:22;;;;;;;4.50;2.60;;;20.60;60.00;;;;;;5099148;28;20429;-71
2023/07/06 05:37:48;;;;;;;4.47;2.57;;;20.70;59.20;;;;;;5098110;28;20230;-72
2023/07/06 05:40:14;;;;;;;5.80;1.93;;;21.00;58.60;;;;;;5097516;28;20766;-73
2023/07/06 05:42:40;;;;;;;4.93;2.57;;;21.30;57.60;;;;;;5086426;28;20539;-73
2023/07/06 05:45:08;;;;;;;4.13;3.73;;;21.50;56.40;;;;;;5108906;28;20499;-75
2023/07/06 05:47:33;;;;;;;2.50;2.10;;;21.70;55.90;;;;;;5108259;28;20195;-73
2023/07/06 05:49:59;;;;;;;4.40;2.47;;;22.00;55.10;;;;;;5105543;28;20716;-72
2023/07/06 05:52:24;;;;;;;3.90;2.33;;;22.10;54.00;;;;;;5117268;28;20199;-74
2023/07/06 05:54:50;;;;;;;2.20;1.90;;;22.10;53.80;;;;;;5118671;28;20195;-74
2023/07/06 05:57:19;;;;;;;3.60;2.50;;;22.20;53.40;;;;;;5105361;28;20227;-72
2023/07/06 05:59:46;;;;;;;5.13;2.33;;;22.20;52.60;;;;;;5109673;28;20283;-71
2023/07/06 06:02:19;;;;;;;5.93;2.13;;;22.30;52.30;;;;;;5097593;28;20456;-74
2023/07/06 06:04:46;;;;;;;5.20;2.17;;;22.40;52.20;;;;;;5128099;28;20529;-73
2023/07/06 06:07:12;;;;;;;5.73;2.33;;;22.40;52.10;;;;;;5099101;28;20433;-73
2023/07/06 06:09:38;;;;;;;4.63;2.03;;;22.60;51.90;;;;;;5103817;28;20434;-74
2023/07/06 06:12:04;;;;;;;3.90;1.90;;;22.80;51.30;;;;;;5109033;28;20437;-74
2023/07/06 06:14:31;;;;;;;3.73;2.03;;;22.70;51.00;;;;;;5107541;28;20176;-75
2023/07/06 06:16:57;;;;;;;8.37;2.20;;;22.80;51.00;;;;;;5093131;28;20457;-74
2023/07/06 06:19:23;;;;;;;4.70;1.77;;;22.90;50.60;;;;;;5123002;28;20527;-73
2023/07/06 06:21:49;;;;;;;7.23;2.63;;;22.90;49.90;;;;;;5106922;28;20609;-74
2023/07/06 06:24:15;;;;;;;4.50;2.23;;;22.80;49.70;;;;;;5109628;28;20172;-76
2023/07/06 06:26:42;;;;;;;4.03;1.90;;;22.80;50.00;;;;;;5071371;28;20172;-75
2023/07/06 06:29:09;;;;;;;4.90;2.77;;;23.00;49.90;;;;;;5121201;28;20884;-75
2023/07/06 06:31:36;;;;;;;3.70;2.20;;;23.00;49.50;;;;;;5089973;28;20431;-74
2023/07/06 06:34:02;;;;;;;5.33;2.60;;;22.90;49.00;;;;;;5067752;28;20415;-76
2023/07/06 06:36:27;;;;;;;4.10;2.73;;;23.00;49.10;;;;;;5088911;28;20412;-78
2023/07/06 06:38:54;;;;;;;6.93;3.07;;;23.10;49.00;;;;;;5066781;28;20193;-75
2023/07/06 06:41:21;;;;;;;4.83;3.20;;;23.10;48.70;;;;;;5119291;28;20183;-78
2023/07/06 06:43:47;;;;;;;4.03;2.20;;;23.10;48.60;;;;;;5106645;28;20452;-76
2023/07/06 06:46:14;;;;;;;5.00;2.17;;;23.10;48.60;;;;;;5077915;28;20431;-75
2023/07/06 06:48:40;;;;;;;8.70;2.70;;;23.00;48.40;;;;;;5065147;28;20423;-76
2023/07/06 06:51:09;;;;;;;3.40;2.20;;;22.90;48.10;;;;;;5093504;28;20449;-74
2023/07/06 06:53:38;;;;;;;4.40;2.93;;;22.60;48.10;;;;;;5108639;28;20500;-77
2023/07/06 06:56:04;;;;;;;3.23;2.07;;;22.20;49.10;;;;;;5094183;28;20409;-74
2023/07/06 06:58:30;;;;;;;3.37;1.47;;;22.20;49.50;;;;;;5098492;28;20517;-77
2023/07/06 07:01:00;;;;;;;3.93;1.90;;;22.30;49.50;;;;;;5085332;28;20470;-77
2023/07/06 07:03:29;;;;;;;5.83;2.77;;;22.40;49.20;;;;;;5080527;28;20306;-77
2023/07/06 07:06:11;;;;;;;2.40;1.77;;;22.40;49.30;;;;;;5104600;28;20431;-74
2023/07/06 07:08:38;;;;;;;3.50;1.80;;;22.30;49.40;;;;;;5073673;28;20406;-76
2023/07/06 07:11:04;;;;;;;5.20;2.40;;;22.30;49.30;;;;;;5107348;28;20461;-75
2023/07/06 07:13:30;;;;;;;4.23;1.93;;;22.00;49.70;;;;;;5103923;28;20413;-75
2023/07/06 07:15:56;;;;;;;3.47;1.70;;;22.10;49.80;;;;;;5075834;28;20185;-77
2023/07/06 07:18:22;;;;;;;4.10;2.40;;;22.10;49.70;;;;;;5068041;28;20165;-79
2023/07/06 07:20:51;;;;;;;2.70;2.10;;;22.10;49.80;;;;;;5067604;28;20454;-79
2023/07/06 07:23:21;;;;;;;4.97;2.53;;;22.20;49.80;;;;;;5104887;28;20454;-78
2023/07/06 07:25:48;;;;;;;1.93;1.73;;;22.10;49.60;;;;;;5103672;28;20476;-75
2023/07/06 07:28:16;;;;;;;4.67;2.00;;;22.10;49.40;;;;;;5098442;28;20439;-75
2023/07/06 07:30:43;;;;;;;4.20;1.50;;;22.00;50.00;;;;;;5095779;28;20446;-76
2023/07/06 07:33:09;;;;;;;4.33;2.07;;;21.90;49.90;;;;;;5105789;28;20507;-74
2023/07/06 07:35:36;;;;;;;5.30;2.20;;;21.70;50.00;;;;;;5090720;28;20410;-76
2023/07/06 07:38:02;;;;;;;8.57;2.63;;;21.40;50.70;;;;;;5074271;28;20230;-78
2023/07/06 07:40:29;;;;;;;8.43;2.30;;;21.00;51.00;;;;;;5094242;28;20974;-75
2023/07/06 07:42:55;;;;;;;3.53;1.73;;;20.60;51.90;;;;;;5094228;28;20440;-78
2023/07/06 07:45:21;;;;;;;5.43;1.50;;;20.20;52.60;;;;;;5108140;28;20505;-76
2023/07/06 07:47:47;;;;;;;2.13;1.30;;;19.90;53.40;;;;;;5090996;28;20411;-76
2023/07/06 07:50:13;;;;;;;4.30;1.90;;;19.50;53.80;;;;;;5089026;28;20498;-78
2023/07/06 07:52:38;;;;;;;4.63;2.10;;;19.40;54.40;;;;;;5090923;28;20528;-74
2023/07/06 07:55:05;;;;;;;5.80;2.10;;;19.20;55.30;;;;;;5081839;28;20194;-77
2023/07/06 07:57:31;;;;;;;4.23;2.07;;;19.00;55.70;;;;;;5093323;28;20184;-74
2023/07/06 07:59:57;;;;;;;4.20;2.10;;;19.10;57.00;;;;;;5088602;28;20461;-74
2023/07/06 08:02:23;;;;;;;6.63;1.77;;;19.20;56.00;;;;;;5074317;28;20459;-76
2023/07/06 08:04:48;;;;;;;3.67;2.07;;;19.10;56.10;;;;;;5096805;28;20216;-76
2023/07/06 08:07:14;;;;;;;9.43;2.80;;;19.00;56.10;;;;;;5096345;28;20247;-77
2023/07/06 08:09:41;;;;;;;4.00;1.90;;;19.00;56.40;;;;;;5116104;28;20475;-75
2023/07/06 08:12:07;;;;;;;3.80;2.10;;;18.90;57.00;;;;;;5138048;28;20416;-73
2023/07/06 08:14:34;;;;;;;5.60;2.27;;;18.90;56.90;;;;;;5121034;28;20472;-76
2023/07/06 08:17:00;;;;;;;3.00;1.50;;;18.90;56.80;;;;;;5110715;28;20448;-76
2023/07/06 08:19:26;;;;;;;3.20;2.43;;;18.90;57.00;;;;;;5062302;28;20480;-74
2023/07/06 08:21:52;;;;;;;4.23;2.80;;;19.10;57.10;;;;;;5132858;28;20197;-78
2023/07/06 08:24:18;;;;;;;5.60;2.00;;;19.30;56.70;;;;;;5134934;28;20400;-76
2023/07/06 08:26:43;;;;;;;2.63;2.00;;;19.40;56.30;;;;;;5096936;28;20187;-76
2023/07/06 08:29:09;;;;;;;6.53;1.87;;;19.40;56.30;;;;;;5095729;28;20217;-74
2023/07/06 08:31:35;;;;;;;5.73;2.23;;;19.40;56.10;;;;;;5095226;28;20382;-73
2023/07/06 08:34:00;;;;;;;6.40;2.30;;;19.40;56.40;;;;;;5074205;28;20195;-75
2023/07/06 08:36:27;;;;;;;2.97;1.53;;;19.50;56.20;;;;;;5111958;28;20179;-75
2023/07/06 08:38:54;;;;;;;2.60;1.30;;;19.40;56.30;;;;;;5117881;28;20195;-78
2023/07/06 08:41:39;;;;;;;6.83;2.30;;;19.50;56.20;;;;;;5098202;28;20424;-79
2023/07/06 08:44:09;;;;;;;4.80;1.80;;;19.70;56.30;;;;;;5111676;28;20421;-74
2023/07/06 08:46:40;;;;;;;4.30;1.80;;;19.80;55.10;;;;;;5077878;28;20418;-76
2023/07/06 08:49:17;;;;;;;9.20;2.40;;;19.80;55.00;;;;;;5092839;28;20440;-77
2023/07/06 08:51:44;;;;;;;4.90;1.77;;;19.80;54.70;;;;;;5101530;28;20418;-77
2023/07/06 08:54:21;;;;;;;3.23;1.50;;;19.80;54.00;;;;;;5092061;28;20402;-77
2023/07/06 08:56:48;;;;;;;2.40;1.50;;;19.90;54.50;;;;;;5075525;28;20407;-78
2023/07/06 08:59:32;;;;;;;3.50;1.50;;;20.00;54.60;;;;;;5068384;28;20451;-76
2023/07/06 09:02:01;;;;;;;3.37;2.07;;;20.20;54.30;;;;;;5088458;28;20466;-75
2023/07/06 09:04:27;;;;;;;2.67;2.20;;;20.30;53.50;;;;;;5109018;28;20467;-76
2023/07/06 09:06:55;;;;;;;6.40;1.90;;;20.40;53.20;;;;;;5112030;28;20406;-74
2023/07/06 09:09:21;;;;;;;3.20;1.83;;;20.40;53.50;;;;;;5080744;28;20445;-78
2023/07/06 09:11:50;;;;;;;4.33;2.20;;;20.40;53.40;;;;;;5096009;28;20423;-74
2023/07/06 09:14:20;;;;;;;3.80;1.90;;;20.50;52.70;;;;;;5114349;28;20176;-76
2023/07/06 09:16:49;;;;;;;6.20;2.00;;;20.50;52.10;;;;;;5105568;28;20837;-77
2023/07/06 09:19:17;;;;;;;3.80;1.90;;;20.40;52.40;;;;;;5071277;28;20508;-76
2023/07/06 09:21:47;;;;;;;5.70;2.50;;;20.40;52.10;;;;;;5119876;28;20450;-77
2023/07/06 09:24:13;;;;;;;4.57;2.50;;;20.60;52.40;;;;;;5091673;28;20449;-74
2023/07/06 09:26:44;;;;;;;2.80;1.57;;;20.80;51.60;;;;;;5068775;28;20418;-76
2023/07/06 09:29:30;;;;;;;3.60;1.93;;;20.80;49.90;;;;;;5077378;28;20726;-76
2023/07/06 09:32:19;;;;;;;3.50;1.67;;;21.00;50.20;;;;;;5074072;28;20427;-74
2023/07/06 09:34:54;;;;;;;4.10;2.20;;;21.10;49.60;;;;;;5113979;28;20402;-76
2023/07/06 09:37:20;;;;;;;4.37;2.00;;;21.30;49.80;;;;;;5095267;28;20409;-77
2023/07/06 09:40:00;;;;;;;3.40;1.67;;;21.10;49.70;;;;;;5129922;28;20727;-75
2023/07/06 09:42:28;;;;;;;3.03;1.50;;;21.00;50.00;;;;;;5111428;28;20458;-78
2023/07/06 09:44:54;;;;;;;3.67;1.97;;;20.90;50.20;;;;;;5075857;28;20442;-76
2023/07/06 09:47:21;;;;;;;3.30;2.10;;;20.90;50.00;;;;;;5077164;28;20491;-77
2023/07/06 09:49:56;;;;;;;4.23;1.77;;;21.00;49.80;;;;;;5092156;28;20473;-76
2023/07/06 09:52:23;;;;;;;3.27;1.50;;;21.10;49.60;;;;;;5109094;28;20414;-76
2023/07/06 09:55:23;;;;;;;3.20;1.70;;;21.20;49.30;;;;;;5092698;28;20418;-78
2023/07/06 09:57:49;;;;;;;3.30;1.63;;;21.10;46.80;;;;;;5107195;28;20471;-76
2023/07/06 10:00:22;;;;;;;3.93;1.40;;;20.90;47.80;;;;;;5104752;28;20454;-77
2023/07/06 10:06:00;;;;;;;2.77;1.30;;;20.90;48.20;;;;;;5124696;27;20871;-75
2023/07/06 10:08:38;;;;;;;3.60;1.90;;;21.20;47.80;;;;;;5066028;28;20413;-76
2023/07/06 10:11:12;;;;;;;2.73;1.87;;;21.30;47.10;;;;;;5096023;28;20434;-77
2023/07/06 10:13:49;;;;;;;6.60;1.57;;;21.40;46.60;;;;;;5089297;28;20406;-79
2023/07/06 10:16:28;;;;;;;4.13;1.77;;;21.60;46.70;;;;;;5059756;28;20425;-76
2023/07/06 10:19:31;;;;;;;2.10;1.20;;;21.50;46.80;;;;;;5086687;28;20424;-79
2023/07/06 10:22:21;;;;;;;3.03;1.37;;;21.60;46.60;;;;;;5090508;28;20413;-77
2023/07/06 10:25:07;;;;;;;3.77;1.50;;;22.00;45.40;;;;;;5093852;28;20455;-75
2023/07/06 10:27:38;;;;;;;5.73;2.27;;;22.20;45.10;;;;;;5103503;28;20477;-77
2023/07/06 10:30:09;;;;;;;5.97;1.93;;;22.40;45.30;;;;;;5084847;28;20435;-76
2023/07/06 10:32:42;;;;;;;5.20;1.60;;;22.50;44.50;;;;;;5069956;28;20420;-77
2023/07/06 10:35:21;;;;;;;3.20;1.70;;;22.50;44.20;;;;;;5086068;28;20427;-77
2023/07/06 10:37:48;;;;;;;5.23;1.17;;;22.50;43.70;;;;;;5085068;28;20485;-78
2023/07/06 10:40:26;;;;;;;2.40;1.40;;;22.50;44.00;;;;;;5091769;28;20453;-77
2023/07/06 10:43:08;;;;;;;2.10;1.30;;;22.40;44.10;;;;;;5089431;28;20463;-78
2023/07/06 10:45:35;;;;;;;1.60;1.17;;;22.50;43.70;;;;;;5068953;28;20440;-78
2023/07/06 10:48:15;;;;;;;2.00;1.00;;;22.50;43.50;;;;;;5068163;28;20385;-76
2023/07/06 10:50:46;;;;;;;1.57;1.13;;;22.50;43.40;;;;;;5086376;28;20499;-77
2023/07/06 10:53:39;;;;;;;2.60;1.60;;;22.60;43.60;;;;;;5067036;28;20420;-76
2023/07/06 10:56:12;;;;;;;2.80;1.70;;;22.80;43.20;;;;;;5093959;28;20437;-79
2023/07/06 10:58:59;;;;;;;3.20;1.37;;;23.00;43.00;;;;;;5107400;28;20459;-78
2023/07/06 11:01:32;;;;;;;2.00;1.07;;;23.30;41.70;;;;;;5076899;28;20418;-78
2023/07/06 11:04:00;;;;;;;2.33;1.20;;;23.40;41.20;;;;;;5107924;28;20470;-78
2023/07/06 11:06:41;;;;;;;2.07;1.47;;;23.40;40.20;;;;;;5104543;28;20407;-77
2023/07/06 11:09:11;;;;;;;6.27;1.57;;;23.50;39.80;;;;;;5088177;28;20449;-77
2023/07/06 11:11:49;;;;;;;1.40;0.90;;;23.40;39.90;;;;;;5090491;28;20395;-78
2023/07/06 11:14:35;;;;;;;4.03;1.30;;;23.10;39.70;;;;;;5109382;28;20416;-78
2023/07/06 11:17:04;;;;;;;3.20;1.37;;;23.20;40.10;;;;;;5050698;28;20405;-77
2023/07/06 11:19:41;;;;;;;4.37;1.50;;;23.40;40.20;;;;;;5037519;28;20437;-77
2023/07/06 11:22:13;;;;;;;2.23;1.10;;;23.50;40.50;;;;;;5054247;28;20425;-76
2023/07/06 11:24:42;;;;;;;2.67;1.40;;;23.60;40.60;;;;;;5038077;28;20457;-78
2023/07/06 11:27:33;;;;;;;2.40;1.33;;;23.90;40.10;;;;;;5037062;28;20409;-76
2023/07/06 11:30:47;;;;;;;3.37;1.43;;;24.10;40.10;;;;;;5052714;28;20448;-76
2023/07/06 11:33:15;;;;;;;3.40;1.67;;;24.30;39.60;;;;;;5042550;28;20462;-77
2023/07/06 11:36:06;;;;;;;2.73;1.30;;;24.70;38.90;;;;;;5055935;28;20416;-77
2023/07/06 11:39:10;;;;;;;2.70;1.47;;;24.80;38.60;;;;;;5073573;28;20447;-77
2023/07/06 11:41:53;;;;;;;1.37;0.90;;;24.90;38.10;;;;;;5056191;28;20460;-77
2023/07/06 11:44:35;;;;;;;2.60;1.57;;;25.00;38.50;;;;;;5050688;28;20464;-77
2023/07/06 11:47:28;;;;;;;2.40;1.50;;;25.20;38.10;;;;;;5051328;28;20421;-78
2023/07/06 11:50:01;;;;;;;2.07;1.60;;;25.40;37.60;;;;;;5067856;28;20451;-78
2023/07/06 11:52:37;;;;;;;2.73;1.13;;;25.30;36.60;;;;;;5073522;28;20450;-77
2023/07/06 11:55:14;;;;;;;2.87;2.00;;;25.20;36.50;;;;;;5073308;28;20408;-76
2023/07/06 11:57:54;;;;;;;2.87;1.40;;;24.90;36.70;;;;;;5074672;28;20415;-77
2023/07/06 12:02:57;;;;;;;2.07;1.53;;;25.10;36.00;;;;;;5085084;28;20408;-78
2023/07/06 12:05:33;;;;;;;1.50;1.10;;;24.80;36.70;;;;;;5053749;28;20530;-75
2023/07/06 12:08:01;;;;;;;2.47;1.90;;;24.70;37.20;;;;;;5068988;28;20375;-76
2023/07/06 12:10:34;;;;;;;2.43;1.60;;;24.80;37.20;;;;;;5069101;28;20431;-78
2023/07/06 12:13:05;;;;;;;2.07;1.30;;;24.90;37.10;;;;;;5069105;28;20396;-78
2023/07/06 12:15:31;;;;;;;2.60;1.83;;;24.90;36.80;;;;;;5064931;28;20421;-79
2023/07/06 12:17:57;;;;;;;2.30;1.50;;;25.20;36.50;;;;;;5047365;28;20420;-77
2023/07/06 12:20:26;;;;;;;3.27;1.70;;;25.30;36.00;;;;;;5048326;28;20441;-78
2023/07/06 12:22:57;;;;;;;3.33;1.47;;;25.20;35.30;;;;;;5038397;28;20428;-77
2023/07/06 12:25:27;;;;;;;2.43;1.43;;;24.90;35.20;;;;;;5071530;28;20463;-76
2023/07/06 12:27:59;;;;;;;3.37;2.00;;;24.70;35.50;;;;;;5052500;28;20439;-79
2023/07/06 12:30:33;;;;;;;1.80;1.47;;;24.50;36.00;;;;;;5049469;28;20433;-76
2023/07/06 12:33:10;;;;;;;1.60;1.50;;;24.30;35.90;;;;;;5044901;28;20479;-78
2023/07/06 12:35:37;;;;;;;1.60;1.50;;;24.40;36.30;;;;;;5042738;28;20432;-75
2023/07/06 12:38:09;;;;;;;2.17;1.63;;;24.60;36.40;;;;;;5071341;28;20400;-77
2023/07/06 12:40:35;;;;;;;4.73;2.30;;;25.10;36.40;;;;;;5053694;28;20432;-77
2023/07/06 12:43:03;;;;;;;5.20;1.90;;;25.40;35.60;;;;;;5053919;28;20504;-79
2023/07/06 12:45:30;;;;;;;2.10;1.90;;;25.20;35.60;;;;;;5043247;28;20543;-76
2023/07/06 12:48:00;;;;;;;2.47;1.60;;;25.10;36.00;;;;;;5068556;28;20411;-76
2023/07/06 12:50:35;;;;;;;3.83;1.63;;;25.20;36.20;;;;;;5059530;28;20816;-76
2023/07/06 12:53:22;;;;;;;2.07;1.40;;;25.20;36.30;;;;;;5035119;28;20447;-80
2023/07/06 12:55:49;;;;;;;3.50;2.03;;;25.30;36.10;;;;;;5053477;28;20402;-76
2023/07/06 12:58:27;;;;;;;2.83;1.90;;;25.50;36.10;;;;;;5055465;28;20461;-78
2023/07/06 13:01:06;;;;;;;2.53;1.37;;;25.50;35.20;;;;;;5042344;28;20440;-78
2023/07/06 13:03:46;;;;;;;2.60;1.57;;;25.30;35.50;;;;;;5078755;28;20495;-78
2023/07/06 13:06:16;;;;;;;2.53;1.63;;;25.00;35.80;;;;;;5095254;28;20452;-78
2023/07/06 13:08:45;;;;;;;1.90;1.40;;;24.90;36.10;;;;;;5094439;28;20410;-77
2023/07/06 13:11:11;;;;;;;4.07;2.10;;;25.10;36.50;;;;;;5111847;28;20423;-79
2023/07/06 13:13:39;;;;;;;2.10;1.70;;;25.20;36.00;;;;;;5079261;28;20479;-78